Terminal Aerodrome Forecast
Issued by NWS

Home | Current Version | Previous Version | Text Only | Print | Product List | Glossary On
Versions: 1 2 3 4 5 6 7 8 9 10 11 12 13 14 15 16 17 18 19 20 21 22
000
FTUS41 KRLX 240237 AAA
TAFCKB
TAF AMD
KCKB 240237Z 2403/2424 22010KT P6SM SCT015 OVC025
      TEMPO 2404/2408 -SHRA BKN015
     FM240800 22008KT P6SM OVC020
     FM241300 20009KT P6SM BKN025
     FM241700 23010KT P6SM VCSH BKN035
     FM242000 24009KT P6SM SCT040=

USA.gov is the U.S. government's official web portal to all federal, state and local government web resources and services.